sensor_id;sensor_type;location;lat;lon;timestamp;pressure;altitude;pressure_sealevel;temperature
45850;BMP180;10739;52.198;20.908;2023-11-19T00:00:58;100912.00;;;4.00
45850;BMP180;10739;52.198;20.908;2023-11-19T00:03:24;100904.00;;;4.10
45850;BMP180;10739;52.198;20.908;2023-11-19T00:05:50;100913.00;;;4.30
45850;BMP180;10739;52.198;20.908;2023-11-19T00:08:17;100910.00;;;4.40
45850;BMP180;10739;52.198;20.908;2023-11-19T00:10:43;100917.00;;;4.50
45850;BMP180;10739;52.198;20.908;2023-11-19T00:13:09;100928.00;;;4.30
45850;BMP180;10739;52.198;20.908;2023-11-19T00:15:36;100922.00;;;4.20
45850;BMP180;10739;52.198;20.908;2023-11-19T00:18:02;100925.00;;;4.30
45850;BMP180;10739;52.198;20.908;2023-11-19T00:20:30;100916.00;;;4.30
45850;BMP180;10739;52.198;20.908;2023-11-19T00:22:57;100905.00;;;4.10
45850;BMP180;10739;52.198;20.908;2023-11-19T00:25:23;100895.00;;;4.10
45850;BMP180;10739;52.198;20.908;2023-11-19T00:27:50;100890.00;;;4.00
45850;BMP180;10739;52.198;20.908;2023-11-19T00:30:19;100894.00;;;4.10
45850;BMP180;10739;52.198;20.908;2023-11-19T00:32:45;100892.00;;;4.20
45850;BMP180;10739;52.198;20.908;2023-11-19T00:35:11;100889.00;;;4.00
45850;BMP180;10739;52.198;20.908;2023-11-19T00:37:40;100891.00;;;3.90
45850;BMP180;10739;52.198;20.908;2023-11-19T00:40:09;100885.00;;;3.90
45850;BMP180;10739;52.198;20.908;2023-11-19T00:42:36;100891.00;;;3.90
45850;BMP180;10739;52.198;20.908;2023-11-19T00:45:03;100882.00;;;4.00
45850;BMP180;10739;52.198;20.908;2023-11-19T00:47:34;100876.00;;;3.90
45850;BMP180;10739;52.198;20.908;2023-11-19T00:50:03;100866.00;;;4.00
45850;BMP180;10739;52.198;20.908;2023-11-19T00:52:29;100874.00;;;4.00
45850;BMP180;10739;52.198;20.908;2023-11-19T00:54:55;100869.00;;;4.30
45850;BMP180;10739;52.198;20.908;2023-11-19T00:57:23;100857.00;;;4.30
45850;BMP180;10739;52.198;20.908;2023-11-19T00:59:50;100844.00;;;4.50
45850;BMP180;10739;52.198;20.908;2023-11-19T01:02:16;100836.00;;;4.10
45850;BMP180;10739;52.198;20.908;2023-11-19T01:04:43;100839.00;;;4.00
45850;BMP180;10739;52.198;20.908;2023-11-19T01:07:10;100836.00;;;3.80
45850;BMP180;10739;52.198;20.908;2023-11-19T01:09:42;100827.00;;;4.00
45850;BMP180;10739;52.198;20.908;2023-11-19T01:12:08;100837.00;;;4.10
45850;BMP180;10739;52.198;20.908;2023-11-19T01:14:36;100830.00;;;4.10
45850;BMP180;10739;52.198;20.908;2023-11-19T01:17:03;100821.00;;;4.00
45850;BMP180;10739;52.198;20.908;2023-11-19T01:19:30;100814.00;;;4.10
45850;BMP180;10739;52.198;20.908;2023-11-19T01:21:57;100809.00;;;4.10
45850;BMP180;10739;52.198;20.908;2023-11-19T01:24:23;100802.00;;;4.00
45850;BMP180;10739;52.198;20.908;2023-11-19T01:26:49;100802.00;;;4.00
45850;BMP180;10739;52.198;20.908;2023-11-19T01:29:16;100808.00;;;4.10
45850;BMP180;10739;52.198;20.908;2023-11-19T01:31:45;100821.00;;;4.20
45850;BMP180;10739;52.198;20.908;2023-11-19T01:34:12;100821.00;;;4.30
45850;BMP180;10739;52.198;20.908;2023-11-19T01:36:38;100820.00;;;4.30
45850;BMP180;10739;52.198;20.908;2023-11-19T01:39:05;100817.00;;;4.20
45850;BMP180;10739;52.198;20.908;2023-11-19T01:41:36;100809.00;;;4.50
45850;BMP180;10739;52.198;20.908;2023-11-19T01:44:02;100797.00;;;4.60
45850;BMP180;10739;52.198;20.908;2023-11-19T01:46:29;100799.00;;;4.20
45850;BMP180;10739;52.198;20.908;2023-11-19T01:48:59;100782.00;;;4.40
45850;BMP180;10739;52.198;20.908;2023-11-19T01:51:26;100777.00;;;4.40
45850;BMP180;10739;52.198;20.908;2023-11-19T01:53:53;100782.00;;;4.40
45850;BMP180;10739;52.198;20.908;2023-11-19T01:56:20;100781.00;;;4.50
45850;BMP180;10739;52.198;20.908;2023-11-19T01:58:49;100780.00;;;4.60
45850;BMP180;10739;52.198;20.908;2023-11-19T02:01:16;100771.00;;;4.60
45850;BMP180;10739;52.198;20.908;2023-11-19T02:03:42;100779.00;;;4.30
45850;BMP180;10739;52.198;20.908;2023-11-19T02:06:09;100771.00;;;4.40
45850;BMP180;10739;52.198;20.908;2023-11-19T02:08:38;100772.00;;;4.50
45850;BMP180;10739;52.198;20.908;2023-11-19T02:11:06;100762.00;;;4.30
45850;BMP180;10739;52.198;20.908;2023-11-19T02:13:38;100758.00;;;4.20
45850;BMP180;10739;52.198;20.908;2023-11-19T02:16:04;100756.00;;;4.10
45850;BMP180;10739;52.198;20.908;2023-11-19T02:18:31;100760.00;;;4.20
45850;BMP180;10739;52.198;20.908;2023-11-19T02:20:59;100758.00;;;3.80
45850;BMP180;10739;52.198;20.908;2023-11-19T02:23:28;100751.00;;;4.20
45850;BMP180;10739;52.198;20.908;2023-11-19T02:26:28;100748.00;;;4.40
45850;BMP180;10739;52.198;20.908;2023-11-19T02:28:57;100747.00;;;4.50
45850;BMP180;10739;52.198;20.908;2023-11-19T02:31:23;100744.00;;;4.40
45850;BMP180;10739;52.198;20.908;2023-11-19T02:33:49;100746.00;;;4.00
45850;BMP180;10739;52.198;20.908;2023-11-19T02:36:16;100734.00;;;4.00
45850;BMP180;10739;52.198;20.908;2023-11-19T02:38:42;100727.00;;;4.20
45850;BMP180;10739;52.198;20.908;2023-11-19T02:41:09;100737.00;;;4.00
45850;BMP180;10739;52.198;20.908;2023-11-19T02:43:37;100740.00;;;4.20
45850;BMP180;10739;52.198;20.908;2023-11-19T02:46:05;100739.00;;;4.00
45850;BMP180;10739;52.198;20.908;2023-11-19T02:48:35;100725.00;;;4.20
45850;BMP180;10739;52.198;20.908;2023-11-19T02:51:03;100723.00;;;4.30
45850;BMP180;10739;52.198;20.908;2023-11-19T02:53:30;100713.00;;;3.90
45850;BMP180;10739;52.198;20.908;2023-11-19T02:55:57;100707.00;;;3.90
45850;BMP180;10739;52.198;20.908;2023-11-19T02:58:43;100694.00;;;3.70
45850;BMP180;10739;52.198;20.908;2023-11-19T03:01:11;100690.00;;;4.00
45850;BMP180;10739;52.198;20.908;2023-11-19T03:03:45;100686.00;;;4.10
45850;BMP180;10739;52.198;20.908;2023-11-19T03:06:15;100691.00;;;4.20
45850;BMP180;10739;52.198;20.908;2023-11-19T03:08:41;100691.00;;;4.10
45850;BMP180;10739;52.198;20.908;2023-11-19T03:11:08;100686.00;;;4.30
45850;BMP180;10739;52.198;20.908;2023-11-19T03:13:34;100677.00;;;4.40
45850;BMP180;10739;52.198;20.908;2023-11-19T03:16:00;100661.00;;;4.10
45850;BMP180;10739;52.198;20.908;2023-11-19T03:18:27;100659.00;;;4.10
45850;BMP180;10739;52.198;20.908;2023-11-19T03:20:54;100659.00;;;4.00
45850;BMP180;10739;52.198;20.908;2023-11-19T03:23:20;100649.00;;;4.00
45850;BMP180;10739;52.198;20.908;2023-11-19T03:25:46;100660.00;;;4.30
45850;BMP180;10739;52.198;20.908;2023-11-19T03:28:13;100660.00;;;4.10
45850;BMP180;10739;52.198;20.908;2023-11-19T03:30:39;100658.00;;;4.10
45850;BMP180;10739;52.198;20.908;2023-11-19T03:33:05;100655.00;;;4.00
45850;BMP180;10739;52.198;20.908;2023-11-19T03:35:32;100653.00;;;3.80
45850;BMP180;10739;52.198;20.908;2023-11-19T03:37:59;100648.00;;;3.90
45850;BMP180;10739;52.198;20.908;2023-11-19T03:40:25;100644.00;;;4.00
45850;BMP180;10739;52.198;20.908;2023-11-19T03:42:51;100641.00;;;3.90
45850;BMP180;10739;52.198;20.908;2023-11-19T03:45:17;100638.00;;;3.80
45850;BMP180;10739;52.198;20.908;2023-11-19T03:47:44;100631.00;;;3.70
45850;BMP180;10739;52.198;20.908;2023-11-19T03:50:10;100626.00;;;3.80
45850;BMP180;10739;52.198;20.908;2023-11-19T03:52:37;100628.00;;;3.80
45850;BMP180;10739;52.198;20.908;2023-11-19T03:55:03;100628.00;;;4.00
45850;BMP180;10739;52.198;20.908;2023-11-19T03:57:31;100619.00;;;3.70
45850;BMP180;10739;52.198;20.908;2023-11-19T03:59:58;100603.00;;;3.50
45850;BMP180;10739;52.198;20.908;2023-11-19T04:02:25;100616.00;;;3.50
45850;BMP180;10739;52.198;20.908;2023-11-19T04:04:54;100605.00;;;3.80
45850;BMP180;10739;52.198;20.908;2023-11-19T04:07:21;100602.00;;;3.60
45850;BMP180;10739;52.198;20.908;2023-11-19T04:09:47;100598.00;;;3.50
45850;BMP180;10739;52.198;20.908;2023-11-19T04:12:14;100587.00;;;3.50
45850;BMP180;10739;52.198;20.908;2023-11-19T04:14:40;100574.00;;;3.50
45850;BMP180;10739;52.198;20.908;2023-11-19T04:17:06;100581.00;;;3.80
45850;BMP180;10739;52.198;20.908;2023-11-19T04:19:32;100574.00;;;3.80
45850;BMP180;10739;52.198;20.908;2023-11-19T04:21:59;100572.00;;;3.90
45850;BMP180;10739;52.198;20.908;2023-11-19T04:24:25;100566.00;;;4.00
45850;BMP180;10739;52.198;20.908;2023-11-19T04:26:51;100568.00;;;3.90
45850;BMP180;10739;52.198;20.908;2023-11-19T04:29:18;100560.00;;;3.90
45850;BMP180;10739;52.198;20.908;2023-11-19T04:31:45;100549.00;;;4.20
45850;BMP180;10739;52.198;20.908;2023-11-19T04:34:12;100547.00;;;4.30
45850;BMP180;10739;52.198;20.908;2023-11-19T04:36:39;100549.00;;;4.30
45850;BMP180;10739;52.198;20.908;2023-11-19T04:39:05;100545.00;;;4.30
45850;BMP180;10739;52.198;20.908;2023-11-19T04:41:51;100551.00;;;4.30
45850;BMP180;10739;52.198;20.908;2023-11-19T04:44:19;100543.00;;;4.30
45850;BMP180;10739;52.198;20.908;2023-11-19T04:46:46;100550.00;;;4.00
45850;BMP180;10739;52.198;20.908;2023-11-19T04:49:14;100541.00;;;4.30
45850;BMP180;10739;52.198;20.908;2023-11-19T04:51:41;100541.00;;;4.10
45850;BMP180;10739;52.198;20.908;2023-11-19T04:54:10;100534.00;;;4.10
45850;BMP180;10739;52.198;20.908;2023-11-19T04:56:37;100532.00;;;4.00
45850;BMP180;10739;52.198;20.908;2023-11-19T04:59:04;100523.00;;;3.90
45850;BMP180;10739;52.198;20.908;2023-11-19T05:01:34;100524.00;;;4.30
45850;BMP180;10739;52.198;20.908;2023-11-19T05:04:01;100523.00;;;4.20
45850;BMP180;10739;52.198;20.908;2023-11-19T05:06:29;100516.00;;;3.60
45850;BMP180;10739;52.198;20.908;2023-11-19T05:09:00;100509.00;;;3.70
45850;BMP180;10739;52.198;20.908;2023-11-19T05:11:35;100508.00;;;4.00
45850;BMP180;10739;52.198;20.908;2023-11-19T05:14:03;100510.00;;;3.60
45850;BMP180;10739;52.198;20.908;2023-11-19T05:16:30;100509.00;;;3.70
45850;BMP180;10739;52.198;20.908;2023-11-19T05:18:56;100500.00;;;3.80
45850;BMP180;10739;52.198;20.908;2023-11-19T05:21:23;100500.00;;;3.80
45850;BMP180;10739;52.198;20.908;2023-11-19T05:23:49;100501.00;;;3.80
45850;BMP180;10739;52.198;20.908;2023-11-19T05:26:20;100492.00;;;3.90
45850;BMP180;10739;52.198;20.908;2023-11-19T05:28:48;100483.00;;;3.90
45850;BMP180;10739;52.198;20.908;2023-11-19T05:31:16;100484.00;;;3.40
45850;BMP180;10739;52.198;20.908;2023-11-19T05:33:43;100484.00;;;3.50
45850;BMP180;10739;52.198;20.908;2023-11-19T05:36:11;100483.00;;;3.80
45850;BMP180;10739;52.198;20.908;2023-11-19T05:38:39;100486.00;;;3.90
45850;BMP180;10739;52.198;20.908;2023-11-19T05:41:06;100481.00;;;3.60
45850;BMP180;10739;52.198;20.908;2023-11-19T05:43:33;100490.00;;;3.40
45850;BMP180;10739;52.198;20.908;2023-11-19T05:45:59;100480.00;;;3.30
45850;BMP180;10739;52.198;20.908;2023-11-19T05:48:26;100472.00;;;3.30
45850;BMP180;10739;52.198;20.908;2023-11-19T05:50:53;100476.00;;;3.30
45850;BMP180;10739;52.198;20.908;2023-11-19T05:53:20;100471.00;;;3.50
45850;BMP180;10739;52.198;20.908;2023-11-19T05:55:47;100471.00;;;3.80
45850;BMP180;10739;52.198;20.908;2023-11-19T05:58:27;100480.00;;;3.50
45850;BMP180;10739;52.198;20.908;2023-11-19T06:00:56;100473.00;;;3.40
45850;BMP180;10739;52.198;20.908;2023-11-19T06:03:22;100483.00;;;3.30
45850;BMP180;10739;52.198;20.908;2023-11-19T06:05:49;100470.00;;;3.40
45850;BMP180;10739;52.198;20.908;2023-11-19T06:08:16;100479.00;;;3.20
45850;BMP180;10739;52.198;20.908;2023-11-19T06:10:44;100476.00;;;3.00
45850;BMP180;10739;52.198;20.908;2023-11-19T06:13:13;100479.00;;;2.90
45850;BMP180;10739;52.198;20.908;2023-11-19T06:15:44;100481.00;;;3.10
45850;BMP180;10739;52.198;20.908;2023-11-19T06:18:11;100473.00;;;3.30
45850;BMP180;10739;52.198;20.908;2023-11-19T06:20:38;100472.00;;;3.10
45850;BMP180;10739;52.198;20.908;2023-11-19T06:23:04;100457.00;;;3.00
45850;BMP180;10739;52.198;20.908;2023-11-19T06:25:31;100449.00;;;3.20
45850;BMP180;10739;52.198;20.908;2023-11-19T06:27:57;100454.00;;;2.90
45850;BMP180;10739;52.198;20.908;2023-11-19T06:30:25;100455.00;;;3.00
45850;BMP180;10739;52.198;20.908;2023-11-19T06:32:52;100454.00;;;2.80
45850;BMP180;10739;52.198;20.908;2023-11-19T06:35:19;100436.00;;;3.10
45850;BMP180;10739;52.198;20.908;2023-11-19T06:37:45;100426.00;;;3.00
45850;BMP180;10739;52.198;20.908;2023-11-19T06:40:12;100423.00;;;3.40
45850;BMP180;10739;52.198;20.908;2023-11-19T06:42:38;100426.00;;;3.40
45850;BMP180;10739;52.198;20.908;2023-11-19T06:45:06;100416.00;;;3.60
45850;BMP180;10739;52.198;20.908;2023-11-19T06:47:32;100424.00;;;3.40
45850;BMP180;10739;52.198;20.908;2023-11-19T06:49:59;100415.00;;;3.00
45850;BMP180;10739;52.198;20.908;2023-11-19T06:52:25;100417.00;;;2.90
45850;BMP180;10739;52.198;20.908;2023-11-19T06:54:51;100409.00;;;2.90
45850;BMP180;10739;52.198;20.908;2023-11-19T06:57:17;100406.00;;;3.00
45850;BMP180;10739;52.198;20.908;2023-11-19T06:59:44;100400.00;;;3.10
45850;BMP180;10739;52.198;20.908;2023-11-19T07:02:10;100407.00;;;2.80
45850;BMP180;10739;52.198;20.908;2023-11-19T07:04:36;100404.00;;;3.00
45850;BMP180;10739;52.198;20.908;2023-11-19T07:07:03;100398.00;;;3.20
45850;BMP180;10739;52.198;20.908;2023-11-19T07:09:29;100400.00;;;3.10
45850;BMP180;10739;52.198;20.908;2023-11-19T07:11:55;100394.00;;;3.20
45850;BMP180;10739;52.198;20.908;2023-11-19T07:14:22;100390.00;;;3.20
45850;BMP180;10739;52.198;20.908;2023-11-19T07:16:49;100394.00;;;3.30
45850;BMP180;10739;52.198;20.908;2023-11-19T07:19:16;100388.00;;;3.20
45850;BMP180;10739;52.198;20.908;2023-11-19T07:21:42;100391.00;;;3.40
45850;BMP180;10739;52.198;20.908;2023-11-19T07:24:10;100387.00;;;3.30
45850;BMP180;10739;52.198;20.908;2023-11-19T07:26:46;100386.00;;;3.10
45850;BMP180;10739;52.198;20.908;2023-11-19T07:29:16;100378.00;;;3.40
45850;BMP180;10739;52.198;20.908;2023-11-19T07:31:45;100372.00;;;3.50
45850;BMP180;10739;52.198;20.908;2023-11-19T07:34:11;100368.00;;;3.10
45850;BMP180;10739;52.198;20.908;2023-11-19T07:36:38;100382.00;;;3.20
45850;BMP180;10739;52.198;20.908;2023-11-19T07:39:04;100361.00;;;3.70
45850;BMP180;10739;52.198;20.908;2023-11-19T07:41:33;100370.00;;;3.30
45850;BMP180;10739;52.198;20.908;2023-11-19T07:44:00;100359.00;;;3.10
45850;BMP180;10739;52.198;20.908;2023-11-19T07:46:27;100350.00;;;3.30
45850;BMP180;10739;52.198;20.908;2023-11-19T07:48:53;100345.00;;;3.60
45850;BMP180;10739;52.198;20.908;2023-11-19T07:51:19;100344.00;;;3.90
45850;BMP180;10739;52.198;20.908;2023-11-19T07:53:46;100343.00;;;4.00
45850;BMP180;10739;52.198;20.908;2023-11-19T07:56:12;100343.00;;;3.70
45850;BMP180;10739;52.198;20.908;2023-11-19T07:58:38;100335.00;;;3.80
45850;BMP180;10739;52.198;20.908;2023-11-19T08:01:05;100335.00;;;3.50
45850;BMP180;10739;52.198;20.908;2023-11-19T08:03:32;100339.00;;;3.70
45850;BMP180;10739;52.198;20.908;2023-11-19T08:06:00;100338.00;;;3.80
45850;BMP180;10739;52.198;20.908;2023-11-19T08:08:27;100319.00;;;3.70
45850;BMP180;10739;52.198;20.908;2023-11-19T08:10:56;100316.00;;;3.90
45850;BMP180;10739;52.198;20.908;2023-11-19T08:13:24;100326.00;;;3.30
45850;BMP180;10739;52.198;20.908;2023-11-19T08:15:51;100322.00;;;3.10
45850;BMP180;10739;52.198;20.908;2023-11-19T08:18:17;100320.00;;;3.40
45850;BMP180;10739;52.198;20.908;2023-11-19T08:20:45;100318.00;;;3.00
45850;BMP180;10739;52.198;20.908;2023-11-19T08:23:11;100308.00;;;3.30
45850;BMP180;10739;52.198;20.908;2023-11-19T08:25:38;100304.00;;;3.70
45850;BMP180;10739;52.198;20.908;2023-11-19T08:28:04;100300.00;;;3.50
45850;BMP180;10739;52.198;20.908;2023-11-19T08:30:31;100296.00;;;3.40
45850;BMP180;10739;52.198;20.908;2023-11-19T08:32:57;100289.00;;;3.40
45850;BMP180;10739;52.198;20.908;2023-11-19T08:35:24;100294.00;;;3.90
45850;BMP180;10739;52.198;20.908;2023-11-19T08:37:51;100283.00;;;3.70
45850;BMP180;10739;52.198;20.908;2023-11-19T08:40:18;100279.00;;;3.70
45850;BMP180;10739;52.198;20.908;2023-11-19T08:42:44;100278.00;;;3.70
45850;BMP180;10739;52.198;20.908;2023-11-19T08:45:11;100275.00;;;4.00
45850;BMP180;10739;52.198;20.908;2023-11-19T08:47:38;100282.00;;;4.00
45850;BMP180;10739;52.198;20.908;2023-11-19T08:50:05;100283.00;;;3.80
45850;BMP180;10739;52.198;20.908;2023-11-19T08:52:31;100280.00;;;4.10
45850;BMP180;10739;52.198;20.908;2023-11-19T08:54:57;100276.00;;;3.80
45850;BMP180;10739;52.198;20.908;2023-11-19T08:57:24;100270.00;;;3.80
45850;BMP180;10739;52.198;20.908;2023-11-19T08:59:50;100269.00;;;3.90
45850;BMP180;10739;52.198;20.908;2023-11-19T09:02:16;100260.00;;;3.90
45850;BMP180;10739;52.198;20.908;2023-11-19T09:04:44;100266.00;;;3.40
45850;BMP180;10739;52.198;20.908;2023-11-19T09:07:10;100245.00;;;4.10
45850;BMP180;10739;52.198;20.908;2023-11-19T09:09:37;100245.00;;;4.30
45850;BMP180;10739;52.198;20.908;2023-11-19T09:12:03;100241.00;;;4.00
45850;BMP180;10739;52.198;20.908;2023-11-19T09:14:30;100231.00;;;4.10
45850;BMP180;10739;52.198;20.908;2023-11-19T09:16:57;100230.00;;;4.00
45850;BMP180;10739;52.198;20.908;2023-11-19T09:19:25;100224.00;;;4.10
45850;BMP180;10739;52.198;20.908;2023-11-19T09:21:53;100216.00;;;4.00
45850;BMP180;10739;52.198;20.908;2023-11-19T09:24:19;100212.00;;;3.80
45850;BMP180;10739;52.198;20.908;2023-11-19T09:26:46;100203.00;;;4.10
45850;BMP180;10739;52.198;20.908;2023-11-19T09:29:12;100214.00;;;4.10
45850;BMP180;10739;52.198;20.908;2023-11-19T09:31:40;100213.00;;;4.50
45850;BMP180;10739;52.198;20.908;2023-11-19T09:34:06;100219.00;;;4.50
45850;BMP180;10739;52.198;20.908;2023-11-19T09:36:33;100201.00;;;4.10
45850;BMP180;10739;52.198;20.908;2023-11-19T09:39:00;100208.00;;;4.10
45850;BMP180;10739;52.198;20.908;2023-11-19T09:41:27;100206.00;;;3.70
45850;BMP180;10739;52.198;20.908;2023-11-19T09:43:54;100192.00;;;3.80
45850;BMP180;10739;52.198;20.908;2023-11-19T09:46:22;100192.00;;;4.00
45850;BMP180;10739;52.198;20.908;2023-11-19T09:48:53;100196.00;;;4.40
45850;BMP180;10739;52.198;20.908;2023-11-19T09:51:22;100186.00;;;4.10
45850;BMP180;10739;52.198;20.908;2023-11-19T09:53:48;100187.00;;;3.50
45850;BMP180;10739;52.198;20.908;2023-11-19T09:56:16;100182.00;;;4.30
45850;BMP180;10739;52.198;20.908;2023-11-19T09:58:46;100180.00;;;3.70
45850;BMP180;10739;52.198;20.908;2023-11-19T10:01:12;100181.00;;;3.90
45850;BMP180;10739;52.198;20.908;2023-11-19T10:03:41;100168.00;;;4.20
45850;BMP180;10739;52.198;20.908;2023-11-19T10:06:10;100166.00;;;4.30
45850;BMP180;10739;52.198;20.908;2023-11-19T10:08:40;100165.00;;;4.40
45850;BMP180;10739;52.198;20.908;2023-11-19T10:11:08;100156.00;;;4.40
45850;BMP180;10739;52.198;20.908;2023-11-19T10:13:35;100149.00;;;4.40
45850;BMP180;10739;52.198;20.908;2023-11-19T10:16:14;100137.00;;;4.00
45850;BMP180;10739;52.198;20.908;2023-11-19T10:18:48;100143.00;;;4.40
45850;BMP180;10739;52.198;20.908;2023-11-19T10:21:18;100136.00;;;4.20
45850;BMP180;10739;52.198;20.908;2023-11-19T10:23:53;100136.00;;;4.30
45850;BMP180;10739;52.198;20.908;2023-11-19T10:26:20;100138.00;;;4.30
45850;BMP180;10739;52.198;20.908;2023-11-19T10:28:47;100132.00;;;4.50
45850;BMP180;10739;52.198;20.908;2023-11-19T10:31:18;100130.00;;;4.10
45850;BMP180;10739;52.198;20.908;2023-11-19T10:33:45;100133.00;;;4.30
45850;BMP180;10739;52.198;20.908;2023-11-19T10:36:13;100120.00;;;4.10
45850;BMP180;10739;52.198;20.908;2023-11-19T10:38:51;100117.00;;;4.40
45850;BMP180;10739;52.198;20.908;2023-11-19T10:41:31;100110.00;;;4.10
45850;BMP180;10739;52.198;20.908;2023-11-19T10:43:59;100109.00;;;4.30
45850;BMP180;10739;52.198;20.908;2023-11-19T10:46:42;100093.00;;;4.10
45850;BMP180;10739;52.198;20.908;2023-11-19T10:49:09;100088.00;;;4.60
45850;BMP180;10739;52.198;20.908;2023-11-19T10:51:43;100082.00;;;4.40
45850;BMP180;10739;52.198;20.908;2023-11-19T10:54:12;100076.00;;;4.30
45850;BMP180;10739;52.198;20.908;2023-11-19T10:56:44;100065.00;;;4.50
45850;BMP180;10739;52.198;20.908;2023-11-19T10:59:13;100055.00;;;4.30
45850;BMP180;10739;52.198;20.908;2023-11-19T11:01:45;100061.00;;;4.50
45850;BMP180;10739;52.198;20.908;2023-11-19T11:04:18;100059.00;;;4.00
45850;BMP180;10739;52.198;20.908;2023-11-19T11:06:47;100050.00;;;4.30
45850;BMP180;10739;52.198;20.908;2023-11-19T11:09:15;100030.00;;;4.50
45850;BMP180;10739;52.198;20.908;2023-11-19T11:11:46;100024.00;;;4.10
45850;BMP180;10739;52.198;20.908;2023-11-19T11:14:13;100030.00;;;4.10
45850;BMP180;10739;52.198;20.908;2023-11-19T11:16:43;100026.00;;;4.00
45850;BMP180;10739;52.198;20.908;2023-11-19T11:19:11;100021.00;;;4.30
45850;BMP180;10739;52.198;20.908;2023-11-19T11:21:44;100014.00;;;3.70
45850;BMP180;10739;52.198;20.908;2023-11-19T11:39:36;99978.00;;;4.20
45850;BMP180;10739;52.198;20.908;2023-11-19T11:45:06;99968.00;;;4.30
45850;BMP180;10739;52.198;20.908;2023-11-19T11:50:17;99956.00;;;4.60
45850;BMP180;10739;52.198;20.908;2023-11-19T11:55:51;99937.00;;;4.30
45850;BMP180;10739;52.198;20.908;2023-11-19T11:58:19;99935.00;;;4.30
45850;BMP180;10739;52.198;20.908;2023-11-19T12:00:48;99934.00;;;4.40
45850;BMP180;10739;52.198;20.908;2023-11-19T12:03:15;99935.00;;;4.40
45850;BMP180;10739;52.198;20.908;2023-11-19T12:05:47;99929.00;;;4.10
45850;BMP180;10739;52.198;20.908;2023-11-19T12:08:19;99920.00;;;4.20
45850;BMP180;10739;52.198;20.908;2023-11-19T12:10:51;99913.00;;;4.50
45850;BMP180;10739;52.198;20.908;2023-11-19T12:13:19;99909.00;;;4.20
45850;BMP180;10739;52.198;20.908;2023-11-19T12:18:31;99897.00;;;4.30
45850;BMP180;10739;52.198;20.908;2023-11-19T12:20:59;99894.00;;;4.10
45850;BMP180;10739;52.198;20.908;2023-11-19T12:23:30;99893.00;;;4.20
45850;BMP180;10739;52.198;20.908;2023-11-19T12:25:57;99889.00;;;4.40
45850;BMP180;10739;52.198;20.908;2023-11-19T12:28:24;99887.00;;;4.10
45850;BMP180;10739;52.198;20.908;2023-11-19T12:30:53;99884.00;;;4.00
45850;BMP180;10739;52.198;20.908;2023-11-19T12:33:20;99882.00;;;4.30
45850;BMP180;10739;52.198;20.908;2023-11-19T12:35:48;99869.00;;;4.20
45850;BMP180;10739;52.198;20.908;2023-11-19T12:38:26;99872.00;;;4.30
45850;BMP180;10739;52.198;20.908;2023-11-19T12:41:09;99872.00;;;4.40
45850;BMP180;10739;52.198;20.908;2023-11-19T12:43:39;99874.00;;;4.40
45850;BMP180;10739;52.198;20.908;2023-11-19T12:46:26;99875.00;;;4.30
45850;BMP180;10739;52.198;20.908;2023-11-19T12:48:53;99869.00;;;4.50
45850;BMP180;10739;52.198;20.908;2023-11-19T12:51:19;99872.00;;;4.30
45850;BMP180;10739;52.198;20.908;2023-11-19T12:53:52;99876.00;;;4.10
45850;BMP180;10739;52.198;20.908;2023-11-19T12:56:24;99880.00;;;4.10
45850;BMP180;10739;52.198;20.908;2023-11-19T12:58:51;99876.00;;;4.40
45850;BMP180;10739;52.198;20.908;2023-11-19T13:01:19;99863.00;;;4.50
45850;BMP180;10739;52.198;20.908;2023-11-19T13:03:47;99861.00;;;4.40
45850;BMP180;10739;52.198;20.908;2023-11-19T13:06:15;99853.00;;;4.30
45850;BMP180;10739;52.198;20.908;2023-11-19T13:08:49;99861.00;;;3.90
45850;BMP180;10739;52.198;20.908;2023-11-19T13:11:51;99842.00;;;4.00
45850;BMP180;10739;52.198;20.908;2023-11-19T13:14:19;99841.00;;;4.00
45850;BMP180;10739;52.198;20.908;2023-11-19T13:16:46;99827.00;;;4.10
45850;BMP180;10739;52.198;20.908;2023-11-19T13:19:16;99826.00;;;4.30
45850;BMP180;10739;52.198;20.908;2023-11-19T13:21:45;99826.00;;;4.30
45850;BMP180;10739;52.198;20.908;2023-11-19T13:24:15;99801.00;;;4.10
45850;BMP180;10739;52.198;20.908;2023-11-19T13:26:41;99801.00;;;4.10
45850;BMP180;10739;52.198;20.908;2023-11-19T13:29:07;99794.00;;;4.00
45850;BMP180;10739;52.198;20.908;2023-11-19T13:31:34;99799.00;;;4.30
45850;BMP180;10739;52.198;20.908;2023-11-19T13:34:01;99782.00;;;4.00
45850;BMP180;10739;52.198;20.908;2023-11-19T13:36:27;99785.00;;;4.10
45850;BMP180;10739;52.198;20.908;2023-11-19T13:38:53;99784.00;;;4.10
45850;BMP180;10739;52.198;20.908;2023-11-19T13:41:28;99778.00;;;4.10
45850;BMP180;10739;52.198;20.908;2023-11-19T13:43:54;99763.00;;;4.10
45850;BMP180;10739;52.198;20.908;2023-11-19T13:46:21;99767.00;;;4.10
45850;BMP180;10739;52.198;20.908;2023-11-19T13:48:47;99773.00;;;4.20
45850;BMP180;10739;52.198;20.908;2023-11-19T13:51:15;99748.00;;;4.00
45850;BMP180;10739;52.198;20.908;2023-11-19T13:53:42;99751.00;;;4.20
45850;BMP180;10739;52.198;20.908;2023-11-19T13:56:10;99744.00;;;4.20
45850;BMP180;10739;52.198;20.908;2023-11-19T13:58:37;99738.00;;;4.10
45850;BMP180;10739;52.198;20.908;2023-11-19T14:01:03;99742.00;;;3.90
45850;BMP180;10739;52.198;20.908;2023-11-19T14:03:30;99746.00;;;3.90
45850;BMP180;10739;52.198;20.908;2023-11-19T14:05:56;99741.00;;;3.90
45850;BMP180;10739;52.198;20.908;2023-11-19T14:08:24;99745.00;;;3.90
45850;BMP180;10739;52.198;20.908;2023-11-19T14:10:50;99735.00;;;4.00
45850;BMP180;10739;52.198;20.908;2023-11-19T14:13:16;99732.00;;;4.00
45850;BMP180;10739;52.198;20.908;2023-11-19T14:15:43;99731.00;;;4.10
45850;BMP180;10739;52.198;20.908;2023-11-19T14:18:09;99731.00;;;4.10
45850;BMP180;10739;52.198;20.908;2023-11-19T14:20:36;99725.00;;;3.80
45850;BMP180;10739;52.198;20.908;2023-11-19T14:23:03;99714.00;;;3.70
45850;BMP180;10739;52.198;20.908;2023-11-19T14:25:30;99717.00;;;3.70
45850;BMP180;10739;52.198;20.908;2023-11-19T14:27:56;99713.00;;;4.00
45850;BMP180;10739;52.198;20.908;2023-11-19T14:30:22;99708.00;;;4.00